Arapaho, Oklahoma
Current Conditions -  °F | °C
As of 10:35 PM on Monday 20 Oct 2014 (Local Time) from KCLK Reporting Station
Scattered Clouds Scattered Clouds  
Wind Chill: 64°   Ceiling: Unl
Heat Index: 64°   Visibility: 10mi
Dew Point: 59°   Wind: 7mph
Humidity: 83%   Direction: 80°E
Pressure: 30.07"   Gusts: NA
Location:  35.58°N, 98.96°W
Report Text: KCLK 210335Z AUTO 08006KT 10SM SCT095 SCT110 18/15 A3007 RMK AO2
Loading
Personal Weather Stations






























Interactive Weather Map
Tropical Storm Tracking
New forecast layout! Learn more

10-Day Weather Forecast

Advertisements
Track Severe Weather on mobile